createdAt,value
2019-01-21T00:00:44.073Z,1012.20
2019-01-21T00:01:44.075Z,1012.19
2019-01-21T00:02:44.036Z,1012.18
2019-01-21T00:03:44.027Z,1012.21
2019-01-21T00:04:44.010Z,1012.19
2019-01-21T00:05:43.996Z,1012.20
2019-01-21T00:06:43.986Z,1012.20
2019-01-21T00:07:43.996Z,1012.18
2019-01-21T00:08:43.983Z,1012.19
2019-01-21T00:09:43.990Z,1012.18
2019-01-21T00:10:43.948Z,1012.19
2019-01-21T00:11:43.948Z,1012.24
2019-01-21T00:12:43.996Z,1012.23
2019-01-21T00:13:43.919Z,1012.18
2019-01-21T00:14:43.913Z,1012.14
2019-01-21T00:15:43.928Z,1012.19
2019-01-21T00:16:43.893Z,1012.16
2019-01-21T00:17:43.888Z,1012.18
2019-01-21T00:18:43.866Z,1012.21
2019-01-21T00:19:43.850Z,1012.16
2019-01-21T00:20:43.849Z,1012.12
2019-01-21T00:21:43.843Z,1012.15
2019-01-21T00:22:43.840Z,1012.14
2019-01-21T00:23:43.828Z,1012.14
2019-01-21T00:24:43.807Z,1012.13
2019-01-21T00:25:43.800Z,1012.15
2019-01-21T00:26:43.841Z,1012.10
2019-01-21T00:27:43.801Z,1012.09
2019-01-21T00:28:43.761Z,1012.11
2019-01-21T00:29:43.745Z,1012.05
2019-01-21T00:30:43.753Z,1012.13
2019-01-21T00:31:43.747Z,1012.10
2019-01-21T00:32:43.746Z,1012.08
2019-01-21T00:33:43.717Z,1012.12
2019-01-21T00:34:43.704Z,1012.06
2019-01-21T00:35:43.690Z,1012.07
2019-01-21T00:36:43.681Z,1012.06
2019-01-21T00:37:43.694Z,1012.05
2019-01-21T00:38:43.669Z,1012.07
2019-01-21T00:39:43.646Z,1012.08
2019-01-21T00:40:43.642Z,1012.10
2019-01-21T00:41:43.624Z,1012.06
2019-01-21T00:42:43.636Z,1012.06
2019-01-21T00:43:43.613Z,1012.07
2019-01-21T00:44:43.612Z,1012.08
2019-01-21T00:45:43.588Z,1012.05
2019-01-21T00:46:43.567Z,1012.06
2019-01-21T00:47:43.588Z,1012.06
2019-01-21T00:48:43.562Z,1012.05
2019-01-21T00:49:43.536Z,1012.03
2019-01-21T00:50:43.530Z,1011.98
2019-01-21T00:51:43.514Z,1012.00
2019-01-21T00:52:43.533Z,1011.98
2019-01-21T00:53:43.527Z,1011.99
2019-01-21T00:54:43.488Z,1011.97
2019-01-21T00:55:43.484Z,1012.01
2019-01-21T00:56:43.464Z,1011.95
2019-01-21T00:57:43.485Z,1012.02
2019-01-21T00:58:43.451Z,1012.01
2019-01-21T00:59:43.446Z,1011.95
2019-01-21T01:00:43.422Z,1012.03
2019-01-21T01:01:43.426Z,1012.02
2019-01-21T01:02:43.418Z,1012.05
2019-01-21T01:03:43.393Z,1012.07
2019-01-21T01:04:43.395Z,1012.05
2019-01-21T01:05:43.371Z,1012.06
2019-01-21T01:06:43.359Z,1012.06
2019-01-21T01:07:43.370Z,1012.09
2019-01-21T01:08:43.367Z,1012.09
2019-01-21T01:09:43.337Z,1012.08
2019-01-21T01:10:43.323Z,1012.08
2019-01-21T01:11:43.318Z,1012.12
2019-01-21T01:12:43.328Z,1012.14
2019-01-21T01:13:43.307Z,1012.18
2019-01-21T01:14:43.278Z,1012.16
2019-01-21T01:15:43.278Z,1012.19
2019-01-21T01:17:52.536Z,1012.21
2019-01-21T01:18:53.480Z,1012.24
2019-01-21T01:19:53.466Z,1012.29
2019-01-21T01:20:53.467Z,1012.31
2019-01-21T01:21:53.457Z,1012.32
2019-01-21T01:22:53.475Z,1012.33
2019-01-21T01:23:53.432Z,1012.37
2019-01-21T01:24:53.419Z,1012.35
2019-01-21T01:25:53.408Z,1012.39
2019-01-21T01:26:53.429Z,1012.36
2019-01-21T01:27:53.384Z,1012.34
2019-01-21T01:28:53.385Z,1012.34
2019-01-21T01:29:53.359Z,1012.33
2019-01-21T01:30:53.349Z,1012.36
2019-01-21T01:31:53.349Z,1012.35
2019-01-21T01:32:53.357Z,1012.34
2019-01-21T01:33:53.328Z,1012.36
2019-01-21T01:34:53.321Z,1012.34
2019-01-21T01:35:53.305Z,1012.34
2019-01-21T01:36:53.300Z,1012.32
2019-01-21T01:37:53.297Z,1012.30
2019-01-21T01:38:53.279Z,1012.33
2019-01-21T01:39:53.271Z,1012.27
2019-01-21T01:40:53.253Z,1012.32
2019-01-21T01:41:53.238Z,1012.37
2019-01-21T01:42:53.247Z,1012.31
2019-01-21T01:43:53.224Z,1012.31
2019-01-21T01:44:53.334Z,1012.30
2019-01-21T01:45:53.202Z,1012.38
2019-01-21T01:46:53.188Z,1012.35
2019-01-21T01:47:53.192Z,1012.29
2019-01-21T01:48:53.171Z,1012.33
2019-01-21T01:49:53.157Z,1012.33
2019-01-21T01:50:53.706Z,1012.33
2019-01-21T01:51:53.140Z,1012.34
2019-01-21T01:52:53.135Z,1012.37
2019-01-21T01:53:53.133Z,1012.31
2019-01-21T01:54:53.135Z,1012.30
2019-01-21T01:55:53.102Z,1012.31
2019-01-21T01:56:53.095Z,1012.27
2019-01-21T01:57:53.099Z,1012.28
2019-01-21T01:58:53.061Z,1012.28
2019-01-21T01:59:53.056Z,1012.25
2019-01-21T02:00:53.046Z,1012.30
2019-01-21T02:01:53.041Z,1012.26
2019-01-21T02:02:53.030Z,1012.27
2019-01-21T02:03:53.028Z,1012.27
2019-01-21T02:04:53.026Z,1012.26
2019-01-21T02:05:52.997Z,1012.29
2019-01-21T02:06:52.998Z,1012.32
2019-01-21T02:07:52.970Z,1012.31
2019-01-21T02:08:52.983Z,1012.32
2019-01-21T02:09:52.960Z,1012.30
2019-01-21T02:10:52.943Z,1012.30
2019-01-21T02:11:52.933Z,1012.31
2019-01-21T02:12:52.920Z,1012.34
2019-01-21T02:13:52.934Z,1012.29
2019-01-21T02:14:52.899Z,1012.32
2019-01-21T02:15:52.894Z,1012.27
2019-01-21T02:16:52.884Z,1012.26
2019-01-21T02:17:52.869Z,1012.30
2019-01-21T02:18:52.882Z,1012.29
2019-01-21T02:19:52.860Z,1012.23
2019-01-21T02:20:52.832Z,1012.28
2019-01-21T02:21:52.830Z,1012.29
2019-01-21T02:22:52.812Z,1012.32
2019-01-21T02:23:52.829Z,1012.24
2019-01-21T02:24:52.806Z,1012.29
2019-01-21T02:25:52.794Z,1012.31
2019-01-21T02:26:52.779Z,1012.28
2019-01-21T02:27:52.772Z,1012.33
2019-01-21T02:28:52.773Z,1012.32
2019-01-21T02:29:52.749Z,1012.32
2019-01-21T02:30:52.741Z,1012.26
2019-01-21T02:31:52.733Z,1012.29
2019-01-21T02:32:52.724Z,1012.28
2019-01-21T02:33:52.716Z,1012.27
2019-01-21T02:34:52.714Z,1012.32
2019-01-21T02:35:52.683Z,1012.34
2019-01-21T02:36:52.699Z,1012.40
2019-01-21T02:37:52.674Z,1012.36
2019-01-21T02:38:52.673Z,1012.38
2019-01-21T02:39:52.641Z,1012.40
2019-01-21T02:40:52.623Z,1012.36
2019-01-21T02:41:52.648Z,1012.42
2019-01-21T02:42:52.681Z,1012.38
2019-01-21T02:43:52.611Z,1012.33
2019-01-21T02:44:52.600Z,1012.31
2019-01-21T02:45:52.589Z,1012.35
2019-01-21T02:46:52.571Z,1012.34
2019-01-21T02:47:59.863Z,1012.34
2019-01-21T02:48:52.568Z,1012.39
2019-01-21T02:49:52.545Z,1012.39
2019-01-21T02:50:52.526Z,1012.39
2019-01-21T02:51:52.526Z,1012.36
2019-01-21T02:52:52.508Z,1012.31
2019-01-21T02:53:52.523Z,1012.30
2019-01-21T02:54:52.498Z,1012.24
2019-01-21T02:55:52.472Z,1012.25
2019-01-21T02:56:52.463Z,1012.21
2019-01-21T02:57:52.449Z,1012.24
2019-01-21T02:58:52.469Z,1012.24
2019-01-21T02:59:52.446Z,1012.26
2019-01-21T03:00:52.421Z,1012.27
2019-01-21T03:01:52.419Z,1012.29
2019-01-21T03:02:52.401Z,1012.26
2019-01-21T03:03:52.410Z,1012.24
2019-01-21T03:04:52.412Z,1012.25
2019-01-21T03:05:52.369Z,1012.21
2019-01-21T03:06:52.371Z,1012.19
2019-01-21T03:07:52.356Z,1012.20
2019-01-21T03:08:52.354Z,1012.16
2019-01-21T03:09:52.332Z,1012.20
2019-01-21T03:10:52.316Z,1012.15
2019-01-21T03:11:52.312Z,1012.20
2019-01-21T03:12:52.309Z,1012.18
2019-01-21T03:13:52.311Z,1012.18
2019-01-21T03:14:52.287Z,1012.17
2019-01-21T03:15:52.267Z,1012.16
2019-01-21T03:16:52.252Z,1012.19
2019-01-21T03:19:01.473Z,1012.20
2019-01-21T03:20:02.446Z,1012.16
2019-01-21T03:21:02.435Z,1012.15
2019-01-21T03:22:02.416Z,1012.16
2019-01-21T03:23:02.400Z,1012.18
2019-01-21T03:24:02.428Z,1012.23
2019-01-21T03:25:02.379Z,1012.13
2019-01-21T03:26:02.383Z,1012.14
2019-01-21T03:27:02.363Z,1012.17
2019-01-21T03:28:02.364Z,1012.19
2019-01-21T03:29:02.359Z,1012.17
2019-01-21T03:30:02.342Z,1012.09
2019-01-21T03:31:02.329Z,1012.13
2019-01-21T03:32:02.331Z,1012.18
2019-01-21T03:33:02.454Z,1012.11
2019-01-21T03:34:02.321Z,1012.17
2019-01-21T03:35:02.283Z,1012.19
2019-01-21T03:36:02.309Z,1012.18
2019-01-21T03:37:02.270Z,1012.16
2019-01-21T03:38:02.382Z,1012.16
2019-01-21T03:39:02.257Z,1012.16
2019-01-21T03:40:02.243Z,1012.17
2019-01-21T03:41:02.230Z,1012.16
2019-01-21T03:42:02.213Z,1012.15
2019-01-21T03:43:02.203Z,1012.15
2019-01-21T03:44:02.206Z,1012.16
2019-01-21T03:45:02.188Z,1012.14
2019-01-21T03:46:02.174Z,1012.06
2019-01-21T03:47:02.159Z,1012.06
2019-01-21T03:48:02.159Z,1012.10
2019-01-21T03:49:02.159Z,1012.11
2019-01-21T03:50:02.126Z,1012.15
2019-01-21T03:51:02.120Z,1012.17
2019-01-21T03:52:02.114Z,1012.22
2019-01-21T03:53:02.101Z,1012.22
2019-01-21T03:54:02.112Z,1012.22
2019-01-21T03:55:02.085Z,1012.15
2019-01-21T03:56:02.065Z,1012.25
2019-01-21T03:57:02.057Z,1012.29
2019-01-21T03:58:02.040Z,1012.25
2019-01-21T03:59:02.038Z,1012.28
2019-01-21T04:00:02.106Z,1012.25
2019-01-21T04:01:02.017Z,1012.22
2019-01-21T04:02:01.999Z,1012.17
2019-01-21T04:03:02.001Z,1012.26
2019-01-21T04:04:01.978Z,1012.23
2019-01-21T04:05:01.990Z,1012.27
2019-01-21T04:06:01.962Z,1012.28
2019-01-21T04:07:01.965Z,1012.29
2019-01-21T04:08:01.945Z,1012.29
2019-01-21T04:09:01.929Z,1012.36
2019-01-21T04:10:01.938Z,1012.31
2019-01-21T04:11:01.921Z,1012.29
2019-01-21T04:12:01.895Z,1012.28
2019-01-21T04:13:01.898Z,1012.26
2019-01-21T04:14:01.888Z,1012.23
2019-01-21T04:15:01.889Z,1012.22
2019-01-21T04:16:01.860Z,1012.21
2019-01-21T04:17:01.856Z,1012.25
2019-01-21T04:18:01.839Z,1012.24
2019-01-21T04:19:01.820Z,1012.28
2019-01-21T04:20:01.854Z,1012.24
2019-01-21T04:21:01.819Z,1012.28
2019-01-21T04:22:01.802Z,1012.30
2019-01-21T04:23:01.783Z,1012.31
2019-01-21T04:24:01.777Z,1012.28
2019-01-21T04:25:01.799Z,1012.30
2019-01-21T04:26:01.763Z,1012.29
2019-01-21T04:27:01.734Z,1012.28
2019-01-21T04:28:01.745Z,1012.25
2019-01-21T04:29:01.714Z,1012.22
2019-01-21T04:30:01.769Z,1012.23
2019-01-21T04:31:01.709Z,1012.27
2019-01-21T04:32:01.682Z,1012.26
2019-01-21T04:33:01.680Z,1012.21
2019-01-21T04:34:01.663Z,1012.24
2019-01-21T04:35:01.689Z,1012.25
2019-01-21T04:36:01.650Z,1012.20
2019-01-21T04:37:01.647Z,1012.24
2019-01-21T04:38:01.621Z,1012.17
2019-01-21T04:39:01.623Z,1012.21
2019-01-21T04:40:01.704Z,1012.22
2019-01-21T04:41:01.592Z,1012.25
2019-01-21T04:42:01.590Z,1012.20
2019-01-21T04:43:01.577Z,1012.18
2019-01-21T04:44:01.559Z,1012.15
2019-01-21T04:45:01.581Z,1012.16
2019-01-21T04:46:01.540Z,1012.23
2019-01-21T04:47:01.524Z,1012.22
2019-01-21T04:48:01.518Z,1012.22
2019-01-21T04:49:01.509Z,1012.21
2019-01-21T04:50:01.525Z,1012.24
2019-01-21T04:51:01.502Z,1012.24
2019-01-21T04:52:01.480Z,1012.24
2019-01-21T04:53:01.473Z,1012.26
2019-01-21T04:54:01.462Z,1012.25
2019-01-21T04:55:01.487Z,1012.26
2019-01-21T04:56:01.443Z,1012.24
2019-01-21T04:57:01.436Z,1012.29
2019-01-21T04:58:01.416Z,1012.29
2019-01-21T04:59:01.420Z,1012.28
2019-01-21T05:00:01.427Z,1012.30
2019-01-21T05:01:01.395Z,1012.29
2019-01-21T05:02:01.389Z,1012.31
2019-01-21T05:03:01.374Z,1012.27
2019-01-21T05:04:01.359Z,1012.30
2019-01-21T05:05:01.356Z,1012.27
2019-01-21T05:06:01.339Z,1012.29
2019-01-21T05:07:02.183Z,1012.29
2019-01-21T05:08:01.346Z,1012.26
2019-01-21T05:09:01.304Z,1012.24
2019-01-21T05:10:01.309Z,1012.19
2019-01-21T05:11:01.291Z,1012.21
2019-01-21T05:12:01.279Z,1012.22
2019-01-21T05:13:01.274Z,1012.24
2019-01-21T05:14:01.257Z,1012.24
2019-01-21T05:15:01.264Z,1012.26
2019-01-21T05:16:01.236Z,1012.20
2019-01-21T05:17:01.221Z,1012.18
2019-01-21T05:18:01.221Z,1012.18
2019-01-21T05:20:10.428Z,1012.12
2019-01-21T05:21:11.394Z,1012.12
2019-01-21T05:22:11.373Z,1012.10
2019-01-21T05:23:11.375Z,1012.08
2019-01-21T05:24:11.385Z,1012.07
2019-01-21T05:25:11.371Z,1012.07
2019-01-21T05:26:11.340Z,1012.04
2019-01-21T05:27:11.323Z,1012.00
2019-01-21T05:28:11.315Z,1012.00
2019-01-21T05:29:11.309Z,1011.99
2019-01-21T05:30:11.311Z,1011.94
2019-01-21T05:31:11.290Z,1011.94
2019-01-21T05:32:11.281Z,1011.87
2019-01-21T05:33:11.272Z,1011.87
2019-01-21T05:34:11.262Z,1011.86
2019-01-21T05:35:11.268Z,1011.80
2019-01-21T05:36:11.244Z,1011.87
2019-01-21T05:37:11.226Z,1011.87
2019-01-21T05:38:11.206Z,1011.83
2019-01-21T05:39:11.251Z,1011.91
2019-01-21T05:40:11.236Z,1011.85
2019-01-21T05:41:11.187Z,1011.85
2019-01-21T05:42:11.182Z,1011.84
2019-01-21T05:43:11.169Z,1011.85
2019-01-21T05:44:11.151Z,1011.81
2019-01-21T05:45:11.170Z,1011.80
2019-01-21T05:46:11.139Z,1011.85
2019-01-21T05:47:11.126Z,1011.84
2019-01-21T05:48:11.102Z,1011.84
2019-01-21T05:49:11.105Z,1011.87
2019-01-21T05:50:11.112Z,1011.87
2019-01-21T05:51:11.072Z,1011.87
2019-01-21T05:52:11.080Z,1011.83
2019-01-21T05:53:11.058Z,1011.85
2019-01-21T05:54:11.050Z,1011.85
2019-01-21T05:55:11.057Z,1011.91
2019-01-21T05:56:11.042Z,1011.90
2019-01-21T05:57:11.006Z,1011.90
2019-01-21T05:58:11.009Z,1011.92
2019-01-21T05:59:10.997Z,1011.93
2019-01-21T06:00:10.987Z,1011.95
2019-01-21T06:01:10.980Z,1011.92
2019-01-21T06:02:10.961Z,1011.94
2019-01-21T06:03:10.967Z,1011.95
2019-01-21T06:04:10.933Z,1011.95
2019-01-21T06:05:10.929Z,1011.95
2019-01-21T06:06:10.944Z,1011.96
2019-01-21T06:07:10.902Z,1011.95
2019-01-21T06:08:10.896Z,1011.94
2019-01-21T06:09:10.881Z,1011.97
2019-01-21T06:10:10.874Z,1012.01
2019-01-21T06:11:10.880Z,1012.05
2019-01-21T06:12:10.874Z,1012.02
2019-01-21T06:13:10.844Z,1012.05
2019-01-21T06:14:10.828Z,1012.04
2019-01-21T06:15:10.820Z,1012.02
2019-01-21T06:16:10.820Z,1012.00
2019-01-21T06:17:10.828Z,1011.99
2019-01-21T06:18:10.804Z,1011.99
2019-01-21T06:19:10.791Z,1012.01
2019-01-21T06:20:10.773Z,1012.00
2019-01-21T06:21:10.776Z,1012.04
2019-01-21T06:22:10.775Z,1012.08
2019-01-21T06:23:10.754Z,1012.07
2019-01-21T06:24:10.730Z,1012.07
2019-01-21T06:25:10.716Z,1012.12
2019-01-21T06:26:10.978Z,1012.03
2019-01-21T06:27:10.721Z,1012.07
2019-01-21T06:28:10.693Z,1012.13
2019-01-21T06:29:10.688Z,1012.13
2019-01-21T06:30:10.667Z,1012.16
2019-01-21T06:31:10.708Z,1012.15
2019-01-21T06:32:10.663Z,1012.13
2019-01-21T06:33:10.633Z,1012.10
2019-01-21T06:34:10.633Z,1012.13
2019-01-21T06:35:10.621Z,1012.14
2019-01-21T06:36:10.607Z,1012.10
2019-01-21T06:37:10.619Z,1012.10
2019-01-21T06:38:10.585Z,1012.09
2019-01-21T06:39:10.584Z,1012.16
2019-01-21T06:40:10.565Z,1012.12
2019-01-21T06:41:10.550Z,1012.22
2019-01-21T06:42:10.555Z,1012.18
2019-01-21T06:43:10.542Z,1012.20
2019-01-21T06:44:10.525Z,1012.20
2019-01-21T06:45:10.520Z,1012.20
2019-01-21T06:46:10.528Z,1012.23
2019-01-21T06:47:10.557Z,1012.24
2019-01-21T06:48:10.505Z,1012.27
2019-01-21T06:49:10.476Z,1012.28
2019-01-21T06:50:10.461Z,1012.23
2019-01-21T06:51:10.479Z,1012.32
2019-01-21T06:52:10.465Z,1012.31
2019-01-21T06:53:10.436Z,1012.30
2019-01-21T06:54:11.143Z,1012.27
2019-01-21T06:55:10.437Z,1012.27
2019-01-21T06:56:10.404Z,1012.26
2019-01-21T06:57:10.403Z,1012.27
2019-01-21T06:58:10.389Z,1012.28
2019-01-21T06:59:10.366Z,1012.25
2019-01-21T07:00:10.363Z,1012.26
2019-01-21T07:01:10.347Z,1012.27
2019-01-21T07:02:10.376Z,1012.20
2019-01-21T07:03:10.327Z,1012.21
2019-01-21T07:04:10.325Z,1012.25
2019-01-21T07:05:10.318Z,1012.23
2019-01-21T07:06:10.312Z,1012.22
2019-01-21T07:07:10.309Z,1012.32
2019-01-21T07:08:10.310Z,1012.28
2019-01-21T07:09:10.259Z,1012.30
2019-01-21T07:10:10.258Z,1012.34
2019-01-21T07:11:10.262Z,1012.38
2019-01-21T07:12:10.470Z,1012.38
2019-01-21T07:13:10.247Z,1012.37
2019-01-21T07:14:10.210Z,1012.43
2019-01-21T07:15:10.227Z,1012.42
2019-01-21T07:16:10.198Z,1012.43
2019-01-21T07:17:10.211Z,1012.44
2019-01-21T07:18:10.182Z,1012.47
2019-01-21T07:19:11.117Z,1012.49
2019-01-21T07:21:19.363Z,1012.48
2019-01-21T07:22:20.401Z,1012.53
2019-01-21T07:23:20.380Z,1012.50
2019-01-21T07:24:20.328Z,1012.55
2019-01-21T07:25:21.318Z,1012.53
2019-01-21T07:26:20.304Z,1012.53
2019-01-21T07:27:20.506Z,1012.54
2019-01-21T07:28:20.475Z,1012.56
2019-01-21T07:29:20.270Z,1012.55
2019-01-21T07:30:20.300Z,1012.56
2019-01-21T07:31:20.252Z,1012.60
2019-01-21T07:32:20.248Z,1012.59
2019-01-21T07:33:20.254Z,1012.65
2019-01-21T07:34:20.223Z,1012.65
2019-01-21T07:35:20.229Z,1012.62
2019-01-21T07:36:20.202Z,1012.62
2019-01-21T07:37:20.323Z,1012.63
2019-01-21T07:38:20.193Z,1012.66
2019-01-21T07:39:20.166Z,1012.66
2019-01-21T07:40:20.285Z,1012.66
2019-01-21T07:41:20.145Z,1012.68
2019-01-21T07:42:20.147Z,1012.63
2019-01-21T07:43:20.133Z,1012.66
2019-01-21T07:44:20.143Z,1012.62
2019-01-21T07:45:20.105Z,1012.62
2019-01-21T07:46:20.102Z,1012.63
2019-01-21T07:47:20.104Z,1012.62
2019-01-21T07:48:20.071Z,1012.64
2019-01-21T07:49:20.056Z,1012.63
2019-01-21T07:50:20.069Z,1012.63
2019-01-21T07:51:20.040Z,1012.65
2019-01-21T07:52:20.068Z,1012.70
2019-01-21T07:53:20.029Z,1012.67
2019-01-21T07:54:20.017Z,1012.71
2019-01-21T07:55:20.008Z,1012.76
2019-01-21T07:56:19.995Z,1012.78
2019-01-21T07:57:19.987Z,1012.76
2019-01-21T07:58:20.040Z,1012.82
2019-01-21T07:59:19.961Z,1012.80
2019-01-21T08:00:19.940Z,1012.83
2019-01-21T08:01:19.940Z,1012.84
2019-01-21T08:02:19.940Z,1012.86
2019-01-21T08:03:19.986Z,1012.88
2019-01-21T08:04:19.908Z,1012.87
2019-01-21T08:05:19.909Z,1012.90
2019-01-21T08:06:19.890Z,1012.92
2019-01-21T08:07:19.871Z,1012.90
2019-01-21T08:08:19.887Z,1012.88
2019-01-21T08:09:20.002Z,1012.88
2019-01-21T08:10:19.852Z,1012.87
2019-01-21T08:11:19.876Z,1012.90
2019-01-21T08:12:19.830Z,1012.84
2019-01-21T08:13:19.829Z,1012.90
2019-01-21T08:14:19.805Z,1012.88
2019-01-21T08:15:19.810Z,1012.95
2019-01-21T08:16:19.777Z,1012.97
2019-01-21T08:17:19.859Z,1012.95
2019-01-21T08:18:19.777Z,1012.99
2019-01-21T08:19:24.281Z,1013.03
2019-01-21T08:20:19.751Z,1013.01
2019-01-21T08:21:19.739Z,1013.03
2019-01-21T08:22:19.746Z,1013.02
2019-01-21T08:23:19.723Z,1013.10
2019-01-21T08:24:19.696Z,1013.04
2019-01-21T08:25:19.776Z,1013.08
2019-01-21T08:26:19.831Z,1013.12
2019-01-21T08:27:19.746Z,1013.14
2019-01-21T08:28:19.679Z,1013.11
2019-01-21T08:29:19.682Z,1013.10
2019-01-21T08:30:19.634Z,1013.12
2019-01-21T08:31:19.650Z,1013.09
2019-01-21T08:32:19.620Z,1013.07
2019-01-21T08:33:19.637Z,1013.11
2019-01-21T08:34:19.597Z,1013.07
2019-01-21T08:35:19.585Z,1013.10
2019-01-21T08:36:19.588Z,1013.14
2019-01-21T08:37:19.702Z,1013.19
2019-01-21T08:38:19.644Z,1013.18
2019-01-21T08:39:19.543Z,1013.22
2019-01-21T08:40:19.553Z,1013.25
2019-01-21T08:41:19.586Z,1013.30
2019-01-21T08:42:19.527Z,1013.29
2019-01-21T08:43:19.537Z,1013.26
2019-01-21T08:44:19.533Z,1013.27
2019-01-21T08:45:19.632Z,1013.24
2019-01-21T08:46:21.421Z,1013.25
2019-01-21T08:47:19.470Z,1013.24
2019-01-21T08:48:19.489Z,1013.25
2019-01-21T08:49:19.461Z,1013.20
2019-01-21T08:50:19.453Z,1013.18
2019-01-21T08:51:19.421Z,1013.21
2019-01-21T08:52:19.417Z,1013.22
2019-01-21T08:53:19.417Z,1013.21
2019-01-21T08:54:19.401Z,1013.21
2019-01-21T08:55:19.385Z,1013.18
2019-01-21T08:56:19.503Z,1013.10
2019-01-21T08:57:19.350Z,1013.04
2019-01-21T08:58:19.374Z,1013.01
2019-01-21T08:59:19.370Z,1012.99
2019-01-21T09:00:19.337Z,1012.99
2019-01-21T09:01:19.321Z,1013.02
2019-01-21T09:02:19.314Z,1012.99
2019-01-21T09:03:19.380Z,1013.02
2019-01-21T09:04:19.376Z,1012.94
2019-01-21T09:05:19.271Z,1012.96
2019-01-21T09:06:19.268Z,1012.96
2019-01-21T09:07:19.261Z,1012.93
2019-01-21T09:08:19.256Z,1012.87
2019-01-21T09:09:19.251Z,1012.86
2019-01-21T09:10:19.233Z,1012.82
2019-01-21T09:11:19.231Z,1012.79
2019-01-21T09:12:19.199Z,1012.80
2019-01-21T09:13:19.200Z,1012.79
2019-01-21T09:14:19.205Z,1012.80
2019-01-21T09:15:19.174Z,1012.79
2019-01-21T09:16:19.178Z,1012.80
2019-01-21T09:17:19.175Z,1012.84
2019-01-21T09:18:19.185Z,1012.80
2019-01-21T09:19:19.132Z,1012.82
2019-01-21T09:20:19.136Z,1012.86
2019-01-21T09:22:28.315Z,1012.87
2019-01-21T09:23:29.340Z,1012.84
2019-01-21T09:24:29.299Z,1012.88
2019-01-21T09:25:29.288Z,1012.86
2019-01-21T09:26:29.272Z,1012.81
2019-01-21T09:27:29.273Z,1012.84
2019-01-21T09:28:29.299Z,1012.90
2019-01-21T09:29:29.241Z,1012.80
2019-01-21T09:30:29.245Z,1012.81
2019-01-21T09:31:29.234Z,1012.85
2019-01-21T09:32:29.208Z,1012.84
2019-01-21T09:33:29.220Z,1012.91
2019-01-21T09:34:29.220Z,1012.93
2019-01-21T09:35:29.194Z,1012.99
2019-01-21T09:36:29.267Z,1013.01
2019-01-21T09:37:29.159Z,1013.08
2019-01-21T09:38:29.168Z,1013.06
2019-01-21T09:39:29.159Z,1013.05
2019-01-21T09:40:29.130Z,1013.06
2019-01-21T09:41:29.147Z,1013.07
2019-01-21T09:42:29.142Z,1013.07
2019-01-21T09:43:29.118Z,1013.08
2019-01-21T09:44:29.114Z,1013.09
2019-01-21T09:45:29.083Z,1013.08
2019-01-21T09:46:29.086Z,1013.02
2019-01-21T09:47:29.103Z,1013.04
2019-01-21T09:48:29.066Z,1012.98
2019-01-21T09:49:29.073Z,1012.93
2019-01-21T09:50:29.038Z,1012.90
2019-01-21T09:51:29.030Z,1012.88
2019-01-21T09:52:29.103Z,1012.86
2019-01-21T09:53:29.013Z,1012.80
2019-01-21T09:54:28.994Z,1012.78
2019-01-21T09:55:29.009Z,1012.79
2019-01-21T09:56:28.974Z,1012.79
2019-01-21T09:57:28.975Z,1012.74
2019-01-21T09:58:28.955Z,1012.71
2019-01-21T09:59:28.962Z,1012.73
2019-01-21T10:00:28.951Z,1012.71
2019-01-21T10:01:28.921Z,1012.70
2019-01-21T10:02:28.912Z,1012.73
2019-01-21T10:03:28.943Z,1012.67
2019-01-21T10:04:28.923Z,1012.63
2019-01-21T10:05:29.031Z,1012.65
2019-01-21T10:06:28.900Z,1012.65
2019-01-21T10:07:28.861Z,1012.65
2019-01-21T10:08:28.861Z,1012.66
2019-01-21T10:09:28.861Z,1012.61
2019-01-21T10:10:28.871Z,1012.60
2019-01-21T10:11:28.823Z,1012.62
2019-01-21T10:12:28.818Z,1012.62
2019-01-21T10:13:28.801Z,1012.60
2019-01-21T10:14:28.832Z,1012.57
2019-01-21T10:15:30.063Z,1012.53
2019-01-21T10:16:28.777Z,1012.60
2019-01-21T10:17:28.768Z,1012.57
2019-01-21T10:18:28.759Z,1012.57
2019-01-21T10:19:28.770Z,1012.58
2019-01-21T10:20:28.752Z,1012.61
2019-01-21T10:21:28.760Z,1012.56
2019-01-21T10:22:28.713Z,1012.48
2019-01-21T10:23:28.717Z,1012.46
2019-01-21T10:24:28.730Z,1012.48
2019-01-21T10:25:29.163Z,1012.44
2019-01-21T10:26:28.722Z,1012.47
2019-01-21T10:27:28.659Z,1012.47
2019-01-21T10:28:28.754Z,1012.51
2019-01-21T10:29:29.582Z,1012.46
2019-01-21T10:30:28.797Z,1012.43
2019-01-21T10:31:28.690Z,1012.41
2019-01-21T10:32:28.642Z,1012.37
2019-01-21T10:33:28.653Z,1012.33
2019-01-21T10:34:28.596Z,1012.36
2019-01-21T10:35:28.711Z,1012.33
2019-01-21T10:36:28.667Z,1012.38
2019-01-21T10:37:28.552Z,1012.35
2019-01-21T10:38:28.560Z,1012.36
2019-01-21T10:39:28.611Z,1012.34
2019-01-21T10:40:28.532Z,1012.35
2019-01-21T10:41:28.518Z,1012.38
2019-01-21T10:42:28.516Z,1012.37
2019-01-21T10:43:28.498Z,1012.38
2019-01-21T10:44:28.481Z,1012.40
2019-01-21T10:45:28.934Z,1012.43
2019-01-21T10:46:28.487Z,1012.41
2019-01-21T10:47:29.101Z,1012.42
2019-01-21T10:48:28.595Z,1012.40
2019-01-21T10:49:29.491Z,1012.33
2019-01-21T10:50:28.630Z,1012.31
2019-01-21T10:51:28.468Z,1012.35
2019-01-21T10:52:28.474Z,1012.37
2019-01-21T10:53:28.391Z,1012.35
2019-01-21T10:54:28.385Z,1012.30
2019-01-21T10:55:28.440Z,1012.30
2019-01-21T10:56:28.367Z,1012.33
2019-01-21T10:57:28.394Z,1012.31
2019-01-21T10:58:28.350Z,1012.37
2019-01-21T10:59:28.336Z,1012.32
2019-01-21T11:00:28.395Z,1012.36
2019-01-21T11:01:28.308Z,1012.37
2019-01-21T11:02:28.312Z,1012.36
2019-01-21T11:03:28.286Z,1012.39
2019-01-21T11:04:28.376Z,1012.34
2019-01-21T11:05:28.465Z,1012.24
2019-01-21T11:06:28.406Z,1012.23
2019-01-21T11:07:28.287Z,1012.22
2019-01-21T11:08:28.564Z,1012.20
2019-01-21T11:09:28.276Z,1012.19
2019-01-21T11:10:28.264Z,1012.16
2019-01-21T11:11:28.225Z,1012.12
2019-01-21T11:12:28.192Z,1012.15
2019-01-21T11:13:28.278Z,1012.08
2019-01-21T11:14:28.192Z,1012.09
2019-01-21T11:15:28.197Z,1012.08
2019-01-21T11:16:28.150Z,1012.11
2019-01-21T11:17:28.132Z,1012.12
2019-01-21T11:18:28.107Z,1012.11
2019-01-21T11:19:28.109Z,1012.13
2019-01-21T11:20:28.160Z,1012.11
2019-01-21T11:21:28.090Z,1012.05
2019-01-21T11:23:38.624Z,1012.08
2019-01-21T11:24:39.613Z,1012.06
2019-01-21T11:25:39.635Z,1012.07
2019-01-21T11:26:41.496Z,1012.06
2019-01-21T11:27:39.674Z,1011.98
2019-01-21T11:28:40.559Z,1012.01
2019-01-21T11:29:39.559Z,1012.01
2019-01-21T11:30:39.558Z,1012.00
2019-01-21T11:31:39.538Z,1012.02
2019-01-21T11:32:39.522Z,1012.01
2019-01-21T11:33:39.515Z,1012.02
2019-01-21T11:34:39.502Z,1012.01
2019-01-21T11:35:39.586Z,1011.99
2019-01-21T11:36:39.600Z,1012.00
2019-01-21T11:37:39.515Z,1011.98
2019-01-21T11:38:39.463Z,1011.98
2019-01-21T11:39:39.438Z,1011.95
2019-01-21T11:40:39.463Z,1011.92
2019-01-21T11:41:39.451Z,1011.89
2019-01-21T11:42:39.410Z,1011.88
2019-01-21T11:43:39.392Z,1011.85
2019-01-21T11:44:39.389Z,1011.89
2019-01-21T11:45:39.402Z,1011.90
2019-01-21T11:46:39.360Z,1011.92
2019-01-21T11:47:39.355Z,1011.88
2019-01-21T11:48:39.329Z,1011.93
2019-01-21T11:49:39.332Z,1011.93
2019-01-21T11:50:39.335Z,1011.97
2019-01-21T11:51:41.263Z,1011.93
2019-01-21T11:52:39.289Z,1011.88
2019-01-21T11:53:39.286Z,1011.91
2019-01-21T11:54:39.280Z,1011.87
2019-01-21T11:55:39.300Z,1011.88
2019-01-21T11:56:39.252Z,1011.88
2019-01-21T11:57:39.335Z,1011.88
2019-01-21T11:58:39.227Z,1011.81
2019-01-21T11:59:39.413Z,1011.73
2019-01-21T12:00:39.239Z,1011.69
2019-01-21T12:01:39.197Z,1011.62
2019-01-21T12:02:39.184Z,1011.64
2019-01-21T12:03:39.200Z,1011.65
2019-01-21T12:04:39.222Z,1011.64
2019-01-21T12:05:39.168Z,1011.65
2019-01-21T12:06:39.154Z,1011.57
2019-01-21T12:07:39.148Z,1011.53
2019-01-21T12:08:39.141Z,1011.55
2019-01-21T12:09:39.976Z,1011.48
2019-01-21T12:10:39.124Z,1011.50
2019-01-21T12:11:39.109Z,1011.57
2019-01-21T12:12:39.078Z,1011.57